New Mount Pleasant, Indiana
Current Conditions -  °F | °C
As of 10:53 PM on Thursday 27 Nov 2014 (Local Time) from KMIE Reporting Station
Overcast Overcast  
Wind Chill: 14°   Ceiling: 3700
Heat Index: 24°   Visibility: 10mi
Dew Point: 16°   Wind: 9mph
Humidity: 71%   Direction: 300°WNW
Pressure: 30.37"   Gusts: NA
Location:  40.4312°N, 85.0058°W
Report Text: KMIE 280353Z AUTO 30008KT 10SM OVC037 M04/M09 A3037 RMK AO2 SLP293 T10441089
Loading
Personal Weather Stations






























Interactive Weather Map New forecast layout! Learn more

10-Day Weather Forecast

Advertisements
Track Severe Weather on mobile